createdAt,value
2022-07-31T00:00:24.206Z,2.00
2022-07-31T00:02:51.760Z,1.60
2022-07-31T00:05:19.230Z,1.70
2022-07-31T00:07:46.694Z,1.80
2022-07-31T00:10:14.196Z,1.95
2022-07-31T00:12:41.697Z,1.65
2022-07-31T00:15:15.625Z,1.77
2022-07-31T00:17:43.320Z,1.90
2022-07-31T00:20:15.174Z,1.65
2022-07-31T00:22:46.385Z,1.92
2022-07-31T00:25:14.506Z,1.95
2022-07-31T00:27:44.735Z,1.85
2022-07-31T00:30:13.473Z,1.80
2022-07-31T00:32:41.950Z,2.00
2022-07-31T00:35:10.530Z,1.60
2022-07-31T00:37:40.332Z,1.80
2022-07-31T00:40:10.666Z,1.50
2022-07-31T00:42:41.284Z,1.60
2022-07-31T00:45:09.536Z,2.00
2022-07-31T00:47:37.005Z,1.50
2022-07-31T00:50:07.486Z,1.80
2022-07-31T00:52:34.997Z,1.67
2022-07-31T00:55:02.395Z,1.80
2022-07-31T00:57:29.997Z,1.85
2022-07-31T00:59:57.436Z,1.60
2022-07-31T01:02:27.706Z,1.60
2022-07-31T01:04:55.178Z,2.08
2022-07-31T01:07:23.267Z,1.55
2022-07-31T01:09:50.646Z,1.60
2022-07-31T01:12:28.122Z,1.70
2022-07-31T01:14:58.115Z,1.65
2022-07-31T01:17:25.602Z,1.80
2022-07-31T01:19:53.485Z,1.60
2022-07-31T01:22:53.315Z,1.85
2022-07-31T01:26:19.552Z,1.50
2022-07-31T01:29:06.555Z,1.80
2022-07-31T01:31:53.782Z,1.65
2022-07-31T01:34:27.078Z,2.03
2022-07-31T01:37:23.830Z,1.95
2022-07-31T01:39:56.670Z,1.52
2022-07-31T01:42:24.334Z,1.75
2022-07-31T01:44:55.016Z,2.00
2022-07-31T01:47:24.269Z,2.00
2022-07-31T01:49:51.883Z,2.05
2022-07-31T01:52:22.783Z,1.90
2022-07-31T01:54:53.272Z,1.90
2022-07-31T01:57:22.633Z,1.85
2022-07-31T01:59:54.819Z,1.77
2022-07-31T02:02:40.549Z,1.70
2022-07-31T02:05:10.429Z,1.60
2022-07-31T02:07:40.305Z,1.73
2022-07-31T02:10:10.127Z,1.60
2022-07-31T02:12:37.755Z,1.80
2022-07-31T02:15:07.368Z,1.40
2022-07-31T02:17:36.174Z,1.58
2022-07-31T02:20:27.907Z,1.33
2022-07-31T02:22:58.310Z,1.70
2022-07-31T02:25:26.881Z,1.48
2022-07-31T02:27:58.758Z,1.63
2022-07-31T02:30:27.788Z,1.42
2022-07-31T02:33:09.239Z,1.60
2022-07-31T02:35:37.648Z,1.60
2022-07-31T02:38:21.681Z,1.50
2022-07-31T02:40:54.489Z,1.40
2022-07-31T02:43:22.059Z,1.50
2022-07-31T02:45:49.590Z,1.13
2022-07-31T02:48:17.199Z,1.30
2022-07-31T02:50:48.544Z,1.20
2022-07-31T02:53:16.506Z,1.23
2022-07-31T02:55:45.087Z,1.20
2022-07-31T02:58:12.987Z,1.40
2022-07-31T03:00:40.556Z,1.40
2022-07-31T03:03:10.727Z,1.65
2022-07-31T03:05:38.422Z,1.70
2022-07-31T03:08:05.947Z,1.25
2022-07-31T03:10:37.520Z,1.30
2022-07-31T03:13:07.496Z,1.50
2022-07-31T03:15:34.932Z,1.30
2022-07-31T03:18:02.351Z,1.60
2022-07-31T03:20:41.795Z,1.23
2022-07-31T03:23:12.043Z,1.30
2022-07-31T03:25:49.318Z,1.50
2022-07-31T03:28:20.350Z,1.20
2022-07-31T03:30:50.287Z,1.30
2022-07-31T03:33:17.957Z,1.20
2022-07-31T03:35:46.161Z,1.33
2022-07-31T03:38:39.165Z,1.40
2022-07-31T03:41:03.306Z,1.20
2022-07-31T03:43:46.787Z,1.40
2022-07-31T03:46:16.614Z,1.33
2022-07-31T03:48:44.171Z,1.10
2022-07-31T03:51:11.769Z,1.50
2022-07-31T03:53:39.571Z,1.38
2022-07-31T03:56:09.379Z,1.38
2022-07-31T03:58:37.985Z,1.20
2022-07-31T04:01:10.397Z,1.50
2022-07-31T04:03:39.914Z,1.38
2022-07-31T04:06:31.339Z,1.10
2022-07-31T04:09:01.607Z,1.33
2022-07-31T04:11:43.350Z,1.30
2022-07-31T04:14:11.434Z,1.20
2022-07-31T04:16:39.108Z,1.40
2022-07-31T04:19:06.677Z,1.27
2022-07-31T04:21:34.211Z,1.33
2022-07-31T04:24:01.795Z,1.35
2022-07-31T04:26:49.410Z,1.23
2022-07-31T04:29:17.146Z,1.20
2022-07-31T04:31:44.636Z,1.20
2022-07-31T04:34:16.071Z,1.30
2022-07-31T04:36:44.436Z,1.30
2022-07-31T04:39:12.368Z,1.45
2022-07-31T04:41:40.419Z,1.10
2022-07-31T04:44:07.923Z,1.30
2022-07-31T04:46:51.957Z,1.52
2022-07-31T04:49:19.707Z,1.42
2022-07-31T04:51:48.116Z,1.27
2022-07-31T04:54:15.560Z,1.20
2022-07-31T04:56:43.171Z,1.20
2022-07-31T04:59:12.209Z,1.30
2022-07-31T05:01:42.373Z,1.20
2022-07-31T05:04:10.962Z,1.40
2022-07-31T05:06:40.076Z,1.38
2022-07-31T05:09:15.023Z,1.40
2022-07-31T05:11:47.265Z,1.40
2022-07-31T05:14:16.792Z,1.23
2022-07-31T05:16:44.777Z,1.35
2022-07-31T05:19:13.690Z,1.42
2022-07-31T05:21:53.999Z,1.58
2022-07-31T05:24:32.635Z,1.60
2022-07-31T05:27:07.334Z,1.40
2022-07-31T05:29:34.836Z,1.45
2022-07-31T05:32:02.678Z,1.50
2022-07-31T05:34:32.806Z,1.40
2022-07-31T05:37:01.921Z,1.33
2022-07-31T05:39:31.553Z,1.20
2022-07-31T05:42:17.534Z,1.38
2022-07-31T05:44:59.985Z,1.50
2022-07-31T05:47:40.674Z,1.40
2022-07-31T05:50:10.251Z,1.20
2022-07-31T05:52:38.537Z,1.60
2022-07-31T05:55:35.557Z,1.60
2022-07-31T05:58:21.539Z,1.58
2022-07-31T06:00:49.616Z,1.50
2022-07-31T06:03:24.538Z,1.40
2022-07-31T06:06:00.694Z,1.38
2022-07-31T06:08:29.118Z,1.48
2022-07-31T06:10:58.352Z,1.38
2022-07-31T06:13:26.884Z,1.40
2022-07-31T06:15:56.153Z,1.20
2022-07-31T06:18:23.905Z,1.20
2022-07-31T06:20:51.518Z,1.45
2022-07-31T06:23:23.032Z,1.15
2022-07-31T06:26:05.291Z,1.20
2022-07-31T06:28:47.511Z,1.33
2022-07-31T06:31:19.620Z,1.50
2022-07-31T06:33:50.883Z,1.40
2022-07-31T06:36:24.143Z,1.35
2022-07-31T06:38:59.255Z,1.33
2022-07-31T06:41:46.943Z,1.33
2022-07-31T06:44:34.972Z,1.20
2022-07-31T06:47:32.145Z,1.20
2022-07-31T06:50:10.483Z,1.42
2022-07-31T06:52:47.535Z,1.20
2022-07-31T06:55:15.093Z,1.17
2022-07-31T06:57:43.651Z,1.30
2022-07-31T07:00:19.660Z,1.40
2022-07-31T07:02:49.955Z,1.15
2022-07-31T07:05:18.027Z,1.40
2022-07-31T07:07:48.147Z,1.30
2022-07-31T07:10:15.797Z,1.40
2022-07-31T07:13:16.998Z,1.70
2022-07-31T07:15:44.463Z,1.23
2022-07-31T07:18:12.598Z,1.40
2022-07-31T07:20:52.015Z,1.30
2022-07-31T07:23:19.823Z,1.10
2022-07-31T07:26:03.431Z,1.17
2022-07-31T07:28:31.773Z,1.40
2022-07-31T07:31:03.759Z,1.40
2022-07-31T07:33:40.227Z,1.70
2022-07-31T07:36:23.974Z,1.50
2022-07-31T07:39:02.411Z,1.17
2022-07-31T07:41:31.351Z,1.50
2022-07-31T07:44:01.815Z,1.20
2022-07-31T07:46:30.517Z,1.30
2022-07-31T07:49:02.181Z,1.30
2022-07-31T07:51:59.080Z,1.45
2022-07-31T07:54:40.562Z,1.35
2022-07-31T07:57:26.549Z,1.63
2022-07-31T08:00:07.767Z,1.40
2022-07-31T08:03:47.234Z,1.48
2022-07-31T08:05:33.267Z,1.33
2022-07-31T08:08:00.754Z,1.40
2022-07-31T08:10:46.805Z,1.33
2022-07-31T08:13:22.293Z,1.35
2022-07-31T08:16:08.296Z,1.63
2022-07-31T08:18:42.551Z,1.48
2022-07-31T08:21:12.586Z,1.50
2022-07-31T08:23:40.011Z,1.45
2022-07-31T08:26:08.641Z,1.13
2022-07-31T08:28:36.374Z,1.70
2022-07-31T08:31:06.609Z,1.70
2022-07-31T08:33:43.856Z,1.50
2022-07-31T08:36:11.360Z,1.30
2022-07-31T08:38:39.452Z,1.40
2022-07-31T08:41:40.654Z,1.50
2022-07-31T08:44:09.938Z,1.40
2022-07-31T08:46:38.511Z,1.20
2022-07-31T08:49:06.672Z,1.52
2022-07-31T08:51:51.291Z,1.80
2022-07-31T08:54:20.391Z,1.60
2022-07-31T08:56:52.547Z,1.20
2022-07-31T08:59:23.282Z,1.60
2022-07-31T09:01:51.509Z,1.40
2022-07-31T09:04:21.322Z,1.40
2022-07-31T09:06:48.900Z,1.52
2022-07-31T09:09:18.018Z,1.20
2022-07-31T09:11:49.647Z,1.40
2022-07-31T09:14:58.335Z,1.55
2022-07-31T09:17:33.847Z,1.55
2022-07-31T09:20:01.415Z,1.70
2022-07-31T09:22:33.960Z,1.42
2022-07-31T09:25:12.862Z,1.20
2022-07-31T09:27:40.744Z,1.55
2022-07-31T09:30:13.430Z,1.92
2022-07-31T09:33:16.637Z,1.60
2022-07-31T09:36:02.858Z,1.52
2022-07-31T09:38:34.204Z,1.42
2022-07-31T09:41:56.182Z,1.50
2022-07-31T09:46:45.224Z,1.38
2022-07-31T09:49:12.823Z,1.52
2022-07-31T09:51:43.108Z,1.35
2022-07-31T09:54:23.746Z,1.50
2022-07-31T09:57:15.257Z,1.67
2022-07-31T09:59:53.365Z,1.60
2022-07-31T10:02:20.831Z,1.48
2022-07-31T10:04:49.451Z,1.50
2022-07-31T10:07:31.578Z,1.45
2022-07-31T10:10:06.064Z,1.45
2022-07-31T10:12:54.422Z,1.50
2022-07-31T10:15:21.927Z,1.60
2022-07-31T10:18:09.341Z,1.45
2022-07-31T10:21:04.494Z,1.75
2022-07-31T10:23:47.087Z,1.30
2022-07-31T10:26:15.914Z,1.38
2022-07-31T10:28:44.416Z,1.40
2022-07-31T10:31:12.124Z,1.40
2022-07-31T10:33:44.423Z,1.40
2022-07-31T10:36:35.503Z,1.35
2022-07-31T10:39:31.331Z,1.73
2022-07-31T10:42:40.179Z,1.65
2022-07-31T10:45:13.820Z,1.70
2022-07-31T10:47:55.663Z,1.40
2022-07-31T10:50:43.520Z,1.40
2022-07-31T10:53:50.407Z,1.63
2022-07-31T10:56:43.343Z,1.70
2022-07-31T10:59:36.828Z,1.92
2022-07-31T11:02:31.967Z,1.45
2022-07-31T11:05:25.297Z,1.65
2022-07-31T11:08:14.334Z,1.42
2022-07-31T11:11:04.427Z,1.70
2022-07-31T11:14:07.077Z,1.60
2022-07-31T11:17:04.472Z,1.70
2022-07-31T11:19:56.404Z,1.50
2022-07-31T11:22:31.576Z,1.58
2022-07-31T11:25:00.815Z,1.60
2022-07-31T11:27:32.182Z,1.58
2022-07-31T11:30:12.482Z,1.58
2022-07-31T11:32:41.788Z,1.42
2022-07-31T11:35:09.309Z,1.60
2022-07-31T11:37:56.610Z,1.60
2022-07-31T11:40:27.933Z,1.60
2022-07-31T11:43:23.527Z,1.65
2022-07-31T11:45:53.884Z,1.60
2022-07-31T11:48:24.566Z,1.40
2022-07-31T11:50:54.777Z,1.48
2022-07-31T11:53:22.306Z,1.60
2022-07-31T11:56:00.731Z,1.63
2022-07-31T11:58:28.856Z,1.60
2022-07-31T12:01:00.520Z,1.45
2022-07-31T12:03:32.679Z,1.77
2022-07-31T12:06:00.139Z,1.73
2022-07-31T12:08:27.794Z,1.80
2022-07-31T12:11:02.694Z,1.75
2022-07-31T12:13:30.415Z,1.50
2022-07-31T12:15:58.751Z,1.70
2022-07-31T12:18:28.051Z,1.95
2022-07-31T12:21:02.916Z,1.85
2022-07-31T12:23:43.999Z,1.67
2022-07-31T12:26:23.475Z,1.60
2022-07-31T12:29:01.476Z,1.73
2022-07-31T12:31:29.670Z,1.38
2022-07-31T12:33:57.141Z,1.80
2022-07-31T12:36:24.595Z,1.70
2022-07-31T12:38:59.085Z,1.90
2022-07-31T12:41:27.845Z,1.50
2022-07-31T12:43:55.460Z,1.85
2022-07-31T12:46:34.824Z,1.60
2022-07-31T12:49:02.635Z,1.80
2022-07-31T12:51:44.267Z,1.80
2022-07-31T12:54:14.171Z,1.80
2022-07-31T12:56:41.747Z,1.88
2022-07-31T12:59:11.744Z,2.00
2022-07-31T13:01:39.579Z,1.67
2022-07-31T13:04:07.500Z,1.75
2022-07-31T13:06:37.472Z,1.77
2022-07-31T13:09:05.158Z,1.90
2022-07-31T13:11:46.515Z,1.60
2022-07-31T13:14:16.902Z,1.80
2022-07-31T13:16:48.126Z,1.55
2022-07-31T13:19:15.720Z,1.50
2022-07-31T13:21:49.098Z,1.83
2022-07-31T13:24:21.672Z,1.80
2022-07-31T13:26:50.016Z,1.70
2022-07-31T13:29:17.529Z,1.67
2022-07-31T13:31:44.980Z,1.60
2022-07-31T13:34:15.267Z,1.75
2022-07-31T13:36:42.771Z,1.67
2022-07-31T13:39:10.751Z,1.60
2022-07-31T13:41:39.533Z,1.60
2022-07-31T13:44:07.644Z,1.70
2022-07-31T13:46:35.227Z,1.55
2022-07-31T13:49:08.086Z,1.52
2022-07-31T13:51:36.466Z,1.73
2022-07-31T13:54:04.017Z,1.85
2022-07-31T13:56:39.449Z,1.60
2022-07-31T13:59:13.757Z,1.60
2022-07-31T14:02:03.702Z,1.52
2022-07-31T14:04:32.418Z,1.50
2022-07-31T14:07:01.460Z,1.70
2022-07-31T14:09:34.715Z,1.70
2022-07-31T14:12:04.617Z,1.80
2022-07-31T14:14:33.171Z,1.60
2022-07-31T14:17:03.757Z,1.70
2022-07-31T14:19:44.096Z,1.70
2022-07-31T14:22:14.554Z,1.60
2022-07-31T14:24:43.286Z,1.60
2022-07-31T14:27:18.615Z,1.70
2022-07-31T14:29:46.717Z,1.73
2022-07-31T14:32:14.171Z,1.65
2022-07-31T14:34:41.600Z,1.80
2022-07-31T14:37:09.105Z,1.63
2022-07-31T14:39:36.559Z,2.00
2022-07-31T14:42:13.305Z,2.00
2022-07-31T14:44:42.108Z,1.63
2022-07-31T14:47:10.924Z,1.80
2022-07-31T14:50:09.351Z,1.50
2022-07-31T14:52:29.458Z,1.85
2022-07-31T14:54:58.464Z,1.60
2022-07-31T14:57:26.646Z,1.60
2022-07-31T14:59:54.544Z,1.58
2022-07-31T15:02:22.888Z,1.80
2022-07-31T15:04:51.677Z,1.70
2022-07-31T15:07:38.433Z,1.73
2022-07-31T15:10:08.261Z,1.83
2022-07-31T15:12:35.713Z,1.70
2022-07-31T15:15:03.196Z,1.80
2022-07-31T15:17:30.726Z,1.70
2022-07-31T15:19:58.249Z,1.60
2022-07-31T15:22:28.542Z,1.80
2022-07-31T15:24:56.016Z,1.70
2022-07-31T15:27:25.069Z,1.50
2022-07-31T15:30:00.519Z,1.77
2022-07-31T15:32:34.895Z,1.77
2022-07-31T15:35:02.475Z,1.70
2022-07-31T15:37:30.341Z,1.58
2022-07-31T15:40:02.961Z,1.55
2022-07-31T15:42:32.164Z,1.70
2022-07-31T15:44:59.620Z,1.50
2022-07-31T15:47:27.094Z,1.50
2022-07-31T15:49:54.501Z,1.52
2022-07-31T15:52:22.069Z,1.50
2022-07-31T15:54:52.104Z,1.20
2022-07-31T15:57:21.186Z,1.58
2022-07-31T15:59:54.189Z,1.65
2022-07-31T16:02:22.293Z,1.45
2022-07-31T16:04:53.108Z,1.90
2022-07-31T16:08:29.712Z,1.60
2022-07-31T16:10:15.298Z,1.90
2022-07-31T16:12:47.625Z,1.50
2022-07-31T16:15:16.137Z,1.60
2022-07-31T16:17:44.038Z,1.73
2022-07-31T16:20:20.727Z,1.65
2022-07-31T16:22:57.799Z,1.55
2022-07-31T16:25:25.890Z,1.60
2022-07-31T16:27:53.369Z,1.52
2022-07-31T16:30:21.076Z,1.65
2022-07-31T16:32:48.791Z,1.58
2022-07-31T16:35:16.243Z,1.60
2022-07-31T16:37:52.059Z,1.55
2022-07-31T16:40:30.342Z,1.60
2022-07-31T16:43:01.370Z,1.75
2022-07-31T16:45:29.663Z,1.60
2022-07-31T16:48:00.013Z,1.58
2022-07-31T16:50:27.650Z,1.50
2022-07-31T16:52:55.435Z,1.48
2022-07-31T16:56:01.118Z,1.50
2022-07-31T16:58:12.243Z,1.80
2022-07-31T17:00:40.301Z,1.50
2022-07-31T17:03:59.204Z,1.60
2022-07-31T17:05:55.591Z,1.60
2022-07-31T17:08:23.040Z,1.63
2022-07-31T17:10:54.357Z,1.50
2022-07-31T17:13:22.788Z,1.70
2022-07-31T17:15:50.390Z,1.70
2022-07-31T17:18:17.956Z,1.58
2022-07-31T17:20:47.093Z,1.55
2022-07-31T17:23:14.747Z,1.60
2022-07-31T17:25:43.317Z,1.60
2022-07-31T17:28:14.998Z,1.70
2022-07-31T17:30:44.957Z,1.38
2022-07-31T17:33:12.493Z,1.40
2022-07-31T17:35:40.118Z,1.77
2022-07-31T17:38:07.719Z,1.30
2022-07-31T17:40:44.061Z,1.58
2022-07-31T17:43:11.827Z,1.73
2022-07-31T17:45:59.377Z,1.60
2022-07-31T17:48:28.919Z,1.70
2022-07-31T17:50:56.292Z,1.60
2022-07-31T17:53:24.089Z,1.45
2022-07-31T17:56:13.010Z,1.67
2022-07-31T17:58:42.933Z,1.48
2022-07-31T18:01:10.451Z,1.48
2022-07-31T18:03:38.813Z,1.40
2022-07-31T18:06:06.270Z,1.60
2022-07-31T18:08:33.686Z,1.80
2022-07-31T18:11:01.231Z,1.60
2022-07-31T18:13:28.805Z,1.30
2022-07-31T18:15:59.181Z,1.50
2022-07-31T18:18:26.563Z,1.60
2022-07-31T18:20:54.006Z,1.60
2022-07-31T18:23:23.038Z,1.60
2022-07-31T18:25:51.348Z,1.40
2022-07-31T18:28:18.801Z,1.50
2022-07-31T18:30:46.210Z,1.27
2022-07-31T18:33:14.309Z,1.70
2022-07-31T18:35:42.665Z,1.50
2022-07-31T18:38:10.340Z,1.50
2022-07-31T18:40:37.856Z,1.50
2022-07-31T18:43:06.192Z,1.42
2022-07-31T18:45:33.667Z,1.50
2022-07-31T18:48:01.973Z,1.40
2022-07-31T18:50:59.211Z,1.42
2022-07-31T18:53:17.110Z,1.50
2022-07-31T18:55:47.261Z,1.63
2022-07-31T18:58:14.897Z,1.50
2022-07-31T19:00:42.577Z,1.80
2022-07-31T19:03:10.011Z,1.58
2022-07-31T19:05:37.472Z,1.75
2022-07-31T19:08:05.632Z,1.83
2022-07-31T19:10:33.055Z,1.70
2022-07-31T19:13:00.920Z,1.50
2022-07-31T19:15:28.329Z,1.63
2022-07-31T19:17:58.637Z,1.98
2022-07-31T19:20:44.524Z,1.88
2022-07-31T19:23:17.207Z,2.00
2022-07-31T19:25:53.958Z,1.90
2022-07-31T19:28:31.633Z,1.92
2022-07-31T19:30:59.271Z,1.63
2022-07-31T19:33:29.450Z,2.15
2022-07-31T19:36:01.758Z,1.60
2022-07-31T19:38:30.460Z,1.60
2022-07-31T19:40:57.970Z,1.63
2022-07-31T19:43:25.490Z,1.63
2022-07-31T19:46:10.225Z,2.03
2022-07-31T19:48:41.174Z,1.80
2022-07-31T19:51:09.581Z,1.60
2022-07-31T19:53:37.505Z,2.03
2022-07-31T19:56:08.835Z,1.52
2022-07-31T19:58:36.900Z,1.90
2022-07-31T20:01:05.069Z,1.88
2022-07-31T20:03:32.896Z,1.90
2022-07-31T20:06:01.122Z,1.70
2022-07-31T20:08:32.868Z,1.90
2022-07-31T20:11:03.685Z,2.20
2022-07-31T20:13:32.687Z,1.60
2022-07-31T20:16:00.272Z,2.03
2022-07-31T20:18:28.769Z,1.75
2022-07-31T20:20:58.013Z,1.60
2022-07-31T20:23:26.278Z,1.90
2022-07-31T20:25:53.754Z,2.00
2022-07-31T20:28:21.268Z,2.00
2022-07-31T20:30:48.883Z,1.70
2022-07-31T20:33:16.570Z,2.00
2022-07-31T20:35:48.824Z,1.92
2022-07-31T20:38:18.813Z,1.75
2022-07-31T20:40:53.085Z,1.83
2022-07-31T20:43:23.528Z,2.10
2022-07-31T20:45:51.442Z,1.83
2022-07-31T20:48:19.035Z,1.92
2022-07-31T20:50:49.034Z,2.00
2022-07-31T20:53:17.268Z,2.00
2022-07-31T20:55:47.463Z,1.73
2022-07-31T20:58:15.077Z,1.83
2022-07-31T21:00:42.628Z,2.00
2022-07-31T21:03:10.052Z,1.67
2022-07-31T21:05:37.474Z,1.90
2022-07-31T21:08:05.201Z,1.80
2022-07-31T21:10:32.684Z,2.00
2022-07-31T21:13:00.086Z,1.92
2022-07-31T21:15:42.814Z,1.75
2022-07-31T21:18:16.876Z,1.80
2022-07-31T21:20:50.927Z,1.90
2022-07-31T21:23:24.161Z,1.73
2022-07-31T21:25:52.582Z,1.98
2022-07-31T21:28:20.444Z,2.10
2022-07-31T21:30:48.140Z,1.73
2022-07-31T21:33:15.791Z,1.70
2022-07-31T21:35:44.057Z,1.70
2022-07-31T21:38:12.406Z,1.65
2022-07-31T21:40:40.311Z,1.60
2022-07-31T21:43:08.659Z,1.95
2022-07-31T21:45:50.779Z,1.67
2022-07-31T21:48:25.185Z,1.75
2022-07-31T21:50:53.494Z,1.65
2022-07-31T21:53:21.002Z,1.63
2022-07-31T21:55:48.529Z,2.03
2022-07-31T21:58:16.502Z,1.80
2022-07-31T22:00:44.381Z,1.98
2022-07-31T22:03:11.938Z,1.80
2022-07-31T22:05:57.719Z,1.98
2022-07-31T22:08:25.167Z,2.00
2022-07-31T22:10:52.614Z,1.77
2022-07-31T22:13:20.259Z,1.85
2022-07-31T22:15:58.630Z,1.95
2022-07-31T22:18:28.874Z,1.60
2022-07-31T22:20:57.291Z,1.80
2022-07-31T22:23:26.685Z,2.10
2022-07-31T22:25:54.419Z,1.67
2022-07-31T22:28:22.300Z,1.60
2022-07-31T22:30:50.034Z,1.65
2022-07-31T22:33:17.682Z,1.88
2022-07-31T22:35:58.312Z,1.60
2022-07-31T22:38:28.727Z,1.90
2022-07-31T22:40:56.589Z,1.70
2022-07-31T22:44:12.798Z,1.73
2022-07-31T22:46:11.920Z,1.67
2022-07-31T22:48:40.798Z,1.80
2022-07-31T22:51:09.055Z,1.80
2022-07-31T22:53:38.303Z,1.63
2022-07-31T22:56:05.763Z,1.92
2022-07-31T22:58:34.055Z,1.55
2022-07-31T23:01:01.457Z,1.80
2022-07-31T23:03:29.827Z,1.67
2022-07-31T23:06:29.353Z,1.80
2022-07-31T23:08:44.724Z,1.92
2022-07-31T23:11:12.718Z,2.00
2022-07-31T23:13:40.266Z,1.95
2022-07-31T23:16:10.727Z,1.95
2022-07-31T23:18:38.154Z,1.60
2022-07-31T23:21:08.478Z,1.98
2022-07-31T23:23:37.229Z,1.73
2022-07-31T23:26:04.794Z,2.00
2022-07-31T23:28:32.246Z,1.80
2022-07-31T23:30:59.708Z,1.90
2022-07-31T23:33:27.124Z,1.88
2022-07-31T23:35:57.531Z,1.90
2022-07-31T23:38:24.965Z,1.85
2022-07-31T23:40:56.206Z,2.00
2022-07-31T23:43:24.011Z,2.00
2022-07-31T23:45:51.723Z,2.10
2022-07-31T23:48:19.718Z,1.80
2022-07-31T23:50:51.225Z,2.00
2022-07-31T23:53:18.747Z,2.08
2022-07-31T23:55:46.119Z,2.10
2022-07-31T23:58:13.738Z,2.25
